Time;durP1;ratioP1;P1;durP2;ratioP2;P2;SDS_P1;SDS_P2;PMS_P1;PMS_P2;Temp;Humidity;BMP_temperature;BMP_pressure;BME280_temperature;BME280_humidity;BME280_pressure;Samples;Min_cycle;Max_cycle;Signal;HPM_P1;HPM_P2
2023/08/17 00:00:51;;;;;;;14.80;4.10;;;;;;;;;;5059941;28;20045;-75
2023/08/17 00:03:22;;;;;;;14.18;4.35;;;;;;;;;;5061292;28;20049;-75
2023/08/17 00:05:53;;;;;;;12.85;3.67;;;;;;;;;;5062970;28;20115;-75
2023/08/17 00:08:31;;;;;;;16.92;4.45;;;;;;;;;;5064908;28;20574;-75
2023/08/17 00:11:03;;;;;;;14.43;4.03;;;;;;;;;;5065106;28;20330;-75
2023/08/17 00:13:42;;;;;;;31.65;4.50;;;;;;;;;;5065183;28;20037;-74
2023/08/17 00:16:16;;;;;;;10.73;3.88;;;;;;;;;;5064894;28;20048;-74
2023/08/17 00:18:55;;;;;;;15.43;4.15;;;;;;;;;;5063110;28;20545;-73
2023/08/17 00:21:28;;;;;;;19.88;4.60;;;;;;;;;;5065156;28;20416;-73
2023/08/17 00:24:07;;;;;;;25.13;4.90;;;;;;;;;;5064702;28;20052;-73
2023/08/17 00:26:52;;;;;;;23.58;4.30;;;;;;;;;;5063941;28;20045;-73
2023/08/17 00:29:28;;;;;;;13.63;4.32;;;;;;;;;;5065197;28;20534;-74
2023/08/17 00:32:01;;;;;;;11.98;4.28;;;;;;;;;;5062852;28;20052;-74
2023/08/17 00:34:32;;;;;;;20.25;4.25;;;;;;;;;;5046927;28;20499;-74
2023/08/17 00:37:03;;;;;;;15.07;4.43;;;;;;;;;;5061837;28;20040;-74
2023/08/17 00:39:36;;;;;;;11.30;4.05;;;;;;;;;;5064467;28;20052;-75
2023/08/17 00:42:07;;;;;;;19.02;4.70;;;;;;;;;;5062378;28;20495;-75
2023/08/17 00:44:40;;;;;;;17.67;4.38;;;;;;;;;;5059248;28;20041;-74
2023/08/17 00:47:11;;;;;;;18.30;4.25;;;;;;;;;;5063982;28;20048;-75
2023/08/17 00:49:42;;;;;;;9.82;4.13;;;;;;;;;;5064296;28;20043;-75
2023/08/17 00:52:14;;;;;;;12.20;4.68;;;;;;;;;;5063802;28;20049;-75
2023/08/17 00:54:45;;;;;;;9.63;4.25;;;;;;;;;;5064535;28;20679;-75
2023/08/17 00:57:15;;;;;;;14.18;5.25;;;;;;;;;;5064576;28;20055;-74
2023/08/17 00:59:46;;;;;;;14.93;4.55;;;;;;;;;;5063813;28;20041;-75
2023/08/17 01:02:33;;;;;;;9.57;4.28;;;;;;;;;;5064455;28;20522;-74
2023/08/17 01:05:06;;;;;;;14.00;4.15;;;;;;;;;;5064274;28;20055;-74
2023/08/17 01:07:37;;;;;;;14.48;4.43;;;;;;;;;;5064096;28;20060;-75
2023/08/17 01:10:09;;;;;;;10.75;4.10;;;;;;;;;;5056354;28;20061;-75
2023/08/17 01:12:47;;;;;;;6.32;4.25;;;;;;;;;;5044005;28;20645;-74
2023/08/17 01:15:28;;;;;;;9.70;4.40;;;;;;;;;;5042885;28;20045;-73
2023/08/17 01:18:11;;;;;;;8.98;4.45;;;;;;;;;;5042568;28;20432;-74
2023/08/17 01:20:44;;;;;;;10.80;4.22;;;;;;;;;;5043906;28;20053;-74
2023/08/17 01:23:16;;;;;;;13.35;5.88;;;;;;;;;;5044703;28;20056;-74
2023/08/17 01:25:48;;;;;;;12.52;4.43;;;;;;;;;;5043893;28;20045;-74
2023/08/17 01:28:18;;;;;;;13.50;4.40;;;;;;;;;;5043353;28;20492;-74
2023/08/17 01:31:01;;;;;;;12.60;4.45;;;;;;;;;;5043035;28;20053;-74
2023/08/17 01:33:32;;;;;;;13.27;4.80;;;;;;;;;;5062959;28;20052;-75
2023/08/17 01:36:30;;;;;;;19.52;5.45;;;;;;;;;;5063420;28;20495;-75
2023/08/17 01:39:03;;;;;;;11.18;4.25;;;;;;;;;;5046526;28;20598;-74
2023/08/17 01:41:34;;;;;;;11.73;4.70;;;;;;;;;;5063111;28;20053;-75
2023/08/17 01:44:06;;;;;;;16.58;5.18;;;;;;;;;;5059736;28;20052;-74
2023/08/17 01:46:38;;;;;;;14.45;4.90;;;;;;;;;;5061934;28;20040;-75
2023/08/17 01:49:08;;;;;;;11.13;4.95;;;;;;;;;;5062053;28;20052;-74
2023/08/17 01:51:38;;;;;;;10.35;4.50;;;;;;;;;;5061864;28;20045;-74
2023/08/17 01:54:09;;;;;;;14.02;4.85;;;;;;;;;;5061395;28;20398;-75
2023/08/17 01:56:41;;;;;;;14.38;4.93;;;;;;;;;;5063317;28;20048;-75
2023/08/17 01:59:12;;;;;;;14.20;4.50;;;;;;;;;;5061649;28;20056;-75
2023/08/17 02:01:44;;;;;;;13.98;4.95;;;;;;;;;;5061804;28;20404;-74
2023/08/17 02:04:16;;;;;;;13.68;4.72;;;;;;;;;;5063768;28;20818;-74
2023/08/17 02:06:47;;;;;;;7.15;4.03;;;;;;;;;;5062644;28;20052;-74
2023/08/17 02:09:17;;;;;;;12.27;5.15;;;;;;;;;;5063008;28;20048;-74
2023/08/17 02:11:47;;;;;;;14.85;4.65;;;;;;;;;;5062800;28;20507;-75
2023/08/17 02:14:17;;;;;;;9.90;5.10;;;;;;;;;;5061239;28;20056;-74
2023/08/17 02:16:48;;;;;;;13.60;5.13;;;;;;;;;;5060626;28;20055;-74
2023/08/17 02:19:20;;;;;;;10.13;4.82;;;;;;;;;;5062237;28;20801;-74
2023/08/17 02:21:52;;;;;;;17.10;5.10;;;;;;;;;;5061542;28;20064;-74
2023/08/17 02:24:23;;;;;;;18.02;5.00;;;;;;;;;;5061296;28;20415;-74
2023/08/17 02:26:54;;;;;;;16.50;5.10;;;;;;;;;;5062152;28;20209;-74
2023/08/17 02:29:24;;;;;;;12.77;4.82;;;;;;;;;;5060829;28;20059;-74
2023/08/17 02:31:55;;;;;;;12.82;5.40;;;;;;;;;;5059852;28;20543;-74
2023/08/17 02:34:27;;;;;;;13.43;5.35;;;;;;;;;;5062562;28;20593;-74
2023/08/17 02:36:57;;;;;;;10.40;4.70;;;;;;;;;;5061351;28;20057;-74
2023/08/17 02:39:28;;;;;;;9.85;5.30;;;;;;;;;;5061650;28;20053;-74
2023/08/17 02:42:00;;;;;;;14.48;5.78;;;;;;;;;;5062316;28;20055;-74
2023/08/17 02:44:31;;;;;;;11.70;5.35;;;;;;;;;;5061250;28;20049;-74
2023/08/17 02:47:03;;;;;;;18.13;5.97;;;;;;;;;;5062474;28;20052;-74
2023/08/17 02:49:35;;;;;;;14.48;5.45;;;;;;;;;;5062155;28;20056;-74
2023/08/17 02:52:06;;;;;;;10.98;5.40;;;;;;;;;;5062365;28;20515;-74
2023/08/17 02:54:36;;;;;;;18.35;5.65;;;;;;;;;;5043966;28;20045;-74
2023/08/17 02:57:06;;;;;;;10.80;5.32;;;;;;;;;;5061973;28;20418;-74
2023/08/17 02:59:37;;;;;;;11.10;5.32;;;;;;;;;;5060495;28;20052;-74
2023/08/17 03:02:09;;;;;;;19.98;6.15;;;;;;;;;;5061923;28;20154;-74
2023/08/17 03:04:41;;;;;;;16.30;5.85;;;;;;;;;;5060835;28;20060;-74
2023/08/17 03:07:12;;;;;;;12.55;5.97;;;;;;;;;;5059826;28;20045;-74
2023/08/17 03:09:42;;;;;;;14.25;7.07;;;;;;;;;;5061986;28;20044;-74
2023/08/17 03:12:13;;;;;;;11.88;7.22;;;;;;;;;;5061157;28;20530;-74
2023/08/17 03:14:44;;;;;;;11.75;6.63;;;;;;;;;;5061996;28;20422;-74
2023/08/17 03:17:14;;;;;;;14.30;7.85;;;;;;;;;;5061960;28;20075;-74
2023/08/17 03:19:44;;;;;;;15.82;6.85;;;;;;;;;;5062107;28;20044;-74
2023/08/17 03:22:15;;;;;;;14.32;7.18;;;;;;;;;;5062067;28;20396;-74
2023/08/17 03:24:45;;;;;;;11.30;7.35;;;;;;;;;;5061957;28;20079;-74
2023/08/17 03:27:15;;;;;;;13.25;6.97;;;;;;;;;;5060035;28;20063;-74
2023/08/17 03:29:46;;;;;;;13.05;7.35;;;;;;;;;;5059875;28;20063;-74
2023/08/17 03:32:17;;;;;;;12.88;6.90;;;;;;;;;;5059469;28;20503;-74
2023/08/17 03:34:49;;;;;;;15.38;6.25;;;;;;;;;;5059709;28;20059;-74
2023/08/17 03:37:19;;;;;;;11.65;6.20;;;;;;;;;;5059746;28;20404;-75
2023/08/17 03:39:49;;;;;;;14.43;7.47;;;;;;;;;;5062769;28;20052;-74
2023/08/17 03:42:20;;;;;;;15.20;6.75;;;;;;;;;;5063786;28;20059;-74
2023/08/17 03:44:54;;;;;;;12.90;7.22;;;;;;;;;;5065286;28;20063;-74
2023/08/17 03:47:25;;;;;;;15.25;7.55;;;;;;;;;;5064269;28;20053;-75
2023/08/17 03:49:57;;;;;;;14.82;7.63;;;;;;;;;;5065485;28;20048;-74
2023/08/17 03:52:28;;;;;;;16.83;8.57;;;;;;;;;;5065657;28;20877;-75
2023/08/17 03:54:59;;;;;;;18.90;8.75;;;;;;;;;;5064166;28;20048;-75
2023/08/17 03:57:30;;;;;;;12.98;8.23;;;;;;;;;;5064314;28;20048;-75
2023/08/17 04:00:02;;;;;;;17.98;9.20;;;;;;;;;;5065291;28;20048;-74
2023/08/17 04:02:40;;;;;;;14.43;8.07;;;;;;;;;;5067831;28;20519;-74
2023/08/17 04:05:17;;;;;;;16.85;9.13;;;;;;;;;;5063747;28;20408;-75
2023/08/17 04:07:47;;;;;;;18.67;9.13;;;;;;;;;;5062714;28;20067;-75
2023/08/17 04:10:17;;;;;;;12.25;8.10;;;;;;;;;;5065590;28;20047;-75
2023/08/17 04:12:47;;;;;;;15.10;8.68;;;;;;;;;;5063845;28;20064;-75
2023/08/17 04:15:19;;;;;;;17.08;9.07;;;;;;;;;;5063600;28;20072;-75
2023/08/17 04:17:50;;;;;;;14.23;9.02;;;;;;;;;;5064109;28;20059;-75
2023/08/17 04:20:22;;;;;;;18.45;8.95;;;;;;;;;;5063095;28;20060;-75
2023/08/17 04:22:53;;;;;;;19.20;9.48;;;;;;;;;;5063823;28;20064;-75
2023/08/17 04:25:27;;;;;;;12.73;8.75;;;;;;;;;;5062895;28;20537;-75
2023/08/17 04:27:58;;;;;;;18.13;9.23;;;;;;;;;;5063447;28;20439;-75
2023/08/17 04:30:28;;;;;;;14.95;8.57;;;;;;;;;;5062600;28;20430;-75
2023/08/17 04:33:01;;;;;;;17.20;9.35;;;;;;;;;;5062472;28;20052;-75
2023/08/17 04:35:32;;;;;;;18.20;9.50;;;;;;;;;;5063435;28;20053;-75
2023/08/17 04:38:03;;;;;;;16.08;9.70;;;;;;;;;;5064484;28;20060;-75
2023/08/17 04:40:34;;;;;;;17.30;10.15;;;;;;;;;;5064660;28;20045;-75
2023/08/17 04:43:04;;;;;;;18.92;10.65;;;;;;;;;;5064840;28;20048;-75
2023/08/17 04:45:35;;;;;;;17.02;10.02;;;;;;;;;;5063357;28;20056;-75
2023/08/17 04:48:07;;;;;;;16.45;10.15;;;;;;;;;;5064456;28;20412;-75
2023/08/17 04:50:37;;;;;;;22.38;10.60;;;;;;;;;;5061832;28;20056;-75
2023/08/17 04:53:07;;;;;;;16.65;10.23;;;;;;;;;;5064275;28;20048;-75
2023/08/17 04:55:37;;;;;;;19.40;10.38;;;;;;;;;;5062050;28;20423;-75
2023/08/17 04:58:09;;;;;;;16.50;9.88;;;;;;;;;;5063391;28;20052;-75
2023/08/17 05:00:41;;;;;;;25.02;10.48;;;;;;;;;;5062438;28;20053;-75
2023/08/17 05:03:12;;;;;;;16.95;9.38;;;;;;;;;;5064298;28;20052;-75
2023/08/17 05:06:03;;;;;;;20.70;10.05;;;;;;;;;;5061876;28;20045;-75
2023/08/17 05:08:34;;;;;;;19.17;9.55;;;;;;;;;;5062840;28;20056;-75
2023/08/17 05:11:05;;;;;;;16.83;9.63;;;;;;;;;;5062506;28;20055;-75
2023/08/17 05:13:36;;;;;;;15.23;9.82;;;;;;;;;;5062890;28;20044;-75
2023/08/17 05:16:07;;;;;;;17.83;9.23;;;;;;;;;;5062859;28;20507;-75
2023/08/17 05:18:38;;;;;;;17.45;9.60;;;;;;;;;;5063080;28;20515;-75
2023/08/17 05:21:11;;;;;;;15.93;9.95;;;;;;;;;;5062077;28;20060;-75
2023/08/17 05:23:42;;;;;;;19.50;10.20;;;;;;;;;;5064389;28;20405;-75
2023/08/17 05:26:12;;;;;;;16.50;9.73;;;;;;;;;;5061887;28;20053;-75
2023/08/17 05:28:45;;;;;;;17.92;9.38;;;;;;;;;;5062145;28;20052;-75
2023/08/17 05:31:17;;;;;;;16.73;10.43;;;;;;;;;;5061672;28;20055;-75
2023/08/17 05:33:49;;;;;;;14.95;9.32;;;;;;;;;;5062391;28;21161;-75
2023/08/17 05:36:20;;;;;;;18.30;9.70;;;;;;;;;;5061196;28;20059;-75
2023/08/17 05:38:52;;;;;;;15.52;9.18;;;;;;;;;;5061614;28;20515;-75
2023/08/17 05:41:22;;;;;;;15.32;9.10;;;;;;;;;;5061554;28;20051;-75
2023/08/17 05:43:53;;;;;;;14.02;8.90;;;;;;;;;;5062785;28;20052;-75
2023/08/17 05:46:22;;;;;;;18.83;9.43;;;;;;;;;;5063770;28;20037;-75
2023/08/17 05:49:01;;;;;;;18.42;9.50;;;;;;;;;;5063333;28;20139;-75
2023/08/17 05:51:33;;;;;;;18.13;9.45;;;;;;;;;;5062759;28;20096;-75
2023/08/17 05:54:05;;;;;;;17.70;9.65;;;;;;;;;;5062674;28;20044;-75
2023/08/17 05:56:36;;;;;;;17.10;9.05;;;;;;;;;;5063006;28;20590;-75
2023/08/17 05:59:06;;;;;;;14.95;8.63;;;;;;;;;;5064004;28;20052;-75
2023/08/17 06:01:37;;;;;;;19.55;8.98;;;;;;;;;;5062614;28;20049;-75
2023/08/17 06:04:08;;;;;;;16.00;9.32;;;;;;;;;;5062636;28;20053;-75
2023/08/17 06:06:38;;;;;;;15.05;8.95;;;;;;;;;;5062880;28;20419;-75
2023/08/17 06:09:09;;;;;;;16.98;8.70;;;;;;;;;;5062863;28;20052;-75
2023/08/17 06:11:40;;;;;;;14.00;9.18;;;;;;;;;;5062125;28;20052;-75
2023/08/17 06:14:10;;;;;;;15.20;9.00;;;;;;;;;;5062874;28;20503;-75
2023/08/17 06:16:40;;;;;;;16.42;8.73;;;;;;;;;;5062735;28;20052;-75
2023/08/17 06:19:10;;;;;;;12.75;8.40;;;;;;;;;;5061421;28;20415;-75
2023/08/17 06:21:42;;;;;;;18.65;9.57;;;;;;;;;;5062690;28;20428;-75
2023/08/17 06:24:13;;;;;;;16.55;9.38;;;;;;;;;;5063116;28;20044;-75
2023/08/17 06:26:45;;;;;;;15.02;9.07;;;;;;;;;;5062472;28;20387;-75
2023/08/17 06:29:16;;;;;;;13.68;9.40;;;;;;;;;;5062095;28;20549;-75
2023/08/17 06:31:46;;;;;;;13.65;8.93;;;;;;;;;;5063047;28;20055;-76
2023/08/17 06:34:16;;;;;;;16.08;9.57;;;;;;;;;;5061874;28;20048;-75
2023/08/17 06:36:58;;;;;;;17.77;9.38;;;;;;;;;;5062659;28;20427;-75
2023/08/17 06:39:29;;;;;;;14.85;8.90;;;;;;;;;;5062525;28;20052;-75
2023/08/17 06:42:00;;;;;;;16.58;9.13;;;;;;;;;;5062611;28;20044;-75
2023/08/17 06:44:31;;;;;;;14.68;9.02;;;;;;;;;;5062019;28;20044;-75
2023/08/17 06:47:02;;;;;;;13.25;8.82;;;;;;;;;;5062198;28;20538;-75
2023/08/17 06:49:35;;;;;;;15.02;9.63;;;;;;;;;;5060870;28;20049;-75
2023/08/17 06:52:06;;;;;;;18.42;9.65;;;;;;;;;;5062429;28;20412;-75
2023/08/17 06:54:36;;;;;;;15.82;9.13;;;;;;;;;;5062158;28;20072;-75
2023/08/17 06:57:07;;;;;;;16.17;9.98;;;;;;;;;;5062317;28;20538;-76
2023/08/17 06:59:37;;;;;;;19.30;10.75;;;;;;;;;;5061594;28;20088;-75
2023/08/17 07:02:08;;;;;;;16.48;9.68;;;;;;;;;;5062164;28;20491;-75
2023/08/17 07:04:38;;;;;;;20.75;10.65;;;;;;;;;;5061794;28;20052;-75
2023/08/17 07:07:08;;;;;;;15.40;10.18;;;;;;;;;;5062009;28;20044;-75
2023/08/17 07:09:40;;;;;;;22.90;10.25;;;;;;;;;;5061892;28;20531;-75
2023/08/17 07:12:11;;;;;;;16.02;10.60;;;;;;;;;;5060736;28;20063;-75
2023/08/17 07:14:41;;;;;;;16.50;10.63;;;;;;;;;;5062343;28;20396;-75
2023/08/17 07:17:12;;;;;;;18.40;10.70;;;;;;;;;;5061829;28;20537;-74
2023/08/17 07:19:43;;;;;;;19.90;10.85;;;;;;;;;;5062082;28;20585;-74
2023/08/17 07:22:34;;;;;;;18.30;9.85;;;;;;;;;;5061749;28;21146;-74
2023/08/17 07:25:05;;;;;;;16.33;10.10;;;;;;;;;;5062351;28;20455;-74
2023/08/17 07:27:38;;;;;;;15.93;10.35;;;;;;;;;;5062231;28;20728;-74
2023/08/17 07:30:09;;;;;;;16.88;10.63;;;;;;;;;;5061468;28;20059;-75
2023/08/17 07:32:39;;;;;;;17.15;10.13;;;;;;;;;;5062095;28;20049;-74
2023/08/17 07:35:09;;;;;;;17.33;10.98;;;;;;;;;;5061960;28;20388;-75
2023/08/17 07:37:39;;;;;;;20.00;9.90;;;;;;;;;;5062369;28;20741;-74
2023/08/17 07:40:12;;;;;;;15.43;9.98;;;;;;;;;;5061173;28;20056;-74
2023/08/17 07:42:43;;;;;;;19.55;9.82;;;;;;;;;;5061599;28;20094;-75
2023/08/17 07:45:14;;;;;;;18.63;9.82;;;;;;;;;;5062214;28;20049;-74
2023/08/17 07:47:44;;;;;;;16.98;10.25;;;;;;;;;;5061656;28;20040;-74
2023/08/17 07:50:15;;;;;;;19.45;11.00;;;;;;;;;;5059523;28;20049;-74
2023/08/17 07:52:46;;;;;;;20.30;11.25;;;;;;;;;;5060601;28;20067;-74
2023/08/17 07:55:16;;;;;;;19.05;11.07;;;;;;;;;;5061956;28;20044;-74
2023/08/17 07:57:46;;;;;;;17.92;11.27;;;;;;;;;;5060045;28;20515;-74
2023/08/17 08:00:17;;;;;;;23.02;11.63;;;;;;;;;;5061395;28;20423;-74
2023/08/17 08:02:47;;;;;;;18.88;11.45;;;;;;;;;;5061512;28;20500;-75
2023/08/17 08:05:17;;;;;;;17.67;11.10;;;;;;;;;;5060940;28;20056;-74
2023/08/17 08:07:48;;;;;;;18.45;10.63;;;;;;;;;;5061370;28;20053;-75
2023/08/17 08:10:19;;;;;;;17.58;10.98;;;;;;;;;;5060013;28;20095;-74
2023/08/17 08:12:51;;;;;;;17.92;11.30;;;;;;;;;;5060755;28;20423;-75
2023/08/17 08:15:21;;;;;;;19.17;11.38;;;;;;;;;;5061811;28;20055;-74
2023/08/17 08:17:51;;;;;;;18.17;12.02;;;;;;;;;;5061271;28;20044;-74
2023/08/17 08:20:22;;;;;;;20.90;11.40;;;;;;;;;;5061761;28;20048;-75
2023/08/17 08:22:53;;;;;;;16.10;11.10;;;;;;;;;;5061335;28;20048;-74
2023/08/17 08:25:22;;;;;;;17.58;11.35;;;;;;;;;;5061379;28;20055;-75
2023/08/17 08:27:53;;;;;;;17.27;11.32;;;;;;;;;;5063662;28;20056;-75
2023/08/17 08:30:23;;;;;;;18.92;11.13;;;;;;;;;;5064769;28;20353;-74
2023/08/17 08:32:57;;;;;;;16.90;11.00;;;;;;;;;;5065309;28;20048;-75
2023/08/17 08:35:29;;;;;;;20.38;11.23;;;;;;;;;;5064900;28;20052;-75
2023/08/17 08:38:01;;;;;;;22.77;12.40;;;;;;;;;;5065451;28;20039;-74
2023/08/17 08:40:32;;;;;;;19.70;11.50;;;;;;;;;;5064379;28;20047;-74
2023/08/17 08:43:03;;;;;;;19.45;11.15;;;;;;;;;;5064854;28;20052;-75
2023/08/17 08:45:36;;;;;;;19.95;10.95;;;;;;;;;;5064445;28;20433;-75
2023/08/17 08:48:09;;;;;;;16.98;11.07;;;;;;;;;;5062404;28;20059;-74
2023/08/17 08:50:40;;;;;;;19.25;10.63;;;;;;;;;;5065664;28;20074;-73
2023/08/17 08:53:21;;;;;;;17.00;11.05;;;;;;;;;;5064078;28;20525;-74
2023/08/17 08:55:58;;;;;;;19.65;11.25;;;;;;;;;;5064752;28;20045;-74
2023/08/17 08:58:31;;;;;;;18.55;10.95;;;;;;;;;;5064381;28;20075;-74
2023/08/17 09:01:02;;;;;;;17.02;10.48;;;;;;;;;;5064830;28;20044;-77
2023/08/17 09:03:37;;;;;;;17.85;11.15;;;;;;;;;;5063466;28;20052;-77
2023/08/17 09:06:11;;;;;;;19.13;11.13;;;;;;;;;;5063774;28;20411;-75
2023/08/17 09:08:45;;;;;;;19.13;10.00;;;;;;;;;;5063948;28;20050;-75
2023/08/17 09:11:16;;;;;;;17.42;10.77;;;;;;;;;;5064264;28;20393;-75
2023/08/17 09:13:47;;;;;;;15.60;10.18;;;;;;;;;;5064177;28;20434;-75
2023/08/17 09:16:22;;;;;;;16.23;10.27;;;;;;;;;;5063915;28;20045;-75
2023/08/17 09:18:54;;;;;;;16.40;10.05;;;;;;;;;;5063643;28;20045;-75
2023/08/17 09:21:25;;;;;;;19.13;9.95;;;;;;;;;;5063853;28;20044;-75
2023/08/17 09:23:56;;;;;;;19.58;11.32;;;;;;;;;;5063765;28;20495;-78
2023/08/17 09:26:36;;;;;;;19.85;10.15;;;;;;;;;;5063957;28;20376;-75
2023/08/17 09:29:21;;;;;;;18.35;10.77;;;;;;;;;;5064515;28;20048;-75
2023/08/17 09:31:52;;;;;;;26.20;11.27;;;;;;;;;;5064439;28;20523;-75
2023/08/17 09:34:23;;;;;;;20.20;12.00;;;;;;;;;;5064672;28;20049;-75
2023/08/17 09:36:53;;;;;;;18.58;11.95;;;;;;;;;;5063124;28;20090;-76
2023/08/17 09:39:25;;;;;;;20.90;11.13;;;;;;;;;;5063205;28;20408;-75
2023/08/17 09:41:56;;;;;;;17.67;11.35;;;;;;;;;;5063266;28;20041;-75
2023/08/17 09:44:26;;;;;;;16.50;10.20;;;;;;;;;;5063389;28;20057;-75
2023/08/17 09:46:56;;;;;;;16.77;9.32;;;;;;;;;;5064093;28;20060;-76
2023/08/17 09:49:31;;;;;;;14.95;9.88;;;;;;;;;;5062606;28;20048;-76
2023/08/17 09:52:05;;;;;;;17.30;10.15;;;;;;;;;;5062980;28;20518;-76
2023/08/17 09:54:36;;;;;;;15.30;9.73;;;;;;;;;;5063433;28;20048;-76
2023/08/17 09:57:06;;;;;;;19.00;10.57;;;;;;;;;;5063635;28;20415;-76
2023/08/17 09:59:37;;;;;;;20.00;10.10;;;;;;;;;;5063272;28;20048;-75
2023/08/17 10:02:20;;;;;;;19.52;10.30;;;;;;;;;;5063271;28;20037;-75
2023/08/17 10:04:53;;;;;;;15.27;10.52;;;;;;;;;;5063257;28;20397;-77
2023/08/17 10:07:31;;;;;;;17.52;9.88;;;;;;;;;;5062594;28;20040;-75
2023/08/17 10:10:06;;;;;;;18.08;10.05;;;;;;;;;;5062268;28;20499;-79
2023/08/17 10:12:42;;;;;;;15.95;10.02;;;;;;;;;;5063075;28;20056;-75
2023/08/17 10:15:18;;;;;;;20.05;10.35;;;;;;;;;;5063314;28;20048;-75
2023/08/17 10:18:14;;;;;;;16.42;10.15;;;;;;;;;;5063277;28;20168;-78
2023/08/17 10:20:56;;;;;;;15.65;9.80;;;;;;;;;;5062135;28;20644;-77
2023/08/17 10:23:27;;;;;;;16.05;10.57;;;;;;;;;;5063104;28;20063;-75
2023/08/17 10:26:01;;;;;;;20.00;11.15;;;;;;;;;;5062344;28;20052;-75
2023/08/17 10:28:34;;;;;;;16.15;10.50;;;;;;;;;;5062516;28;20071;-75
2023/08/17 10:31:07;;;;;;;17.90;10.20;;;;;;;;;;5062192;28;20048;-75
2023/08/17 10:33:44;;;;;;;17.67;10.05;;;;;;;;;;5063140;28;20452;-75
2023/08/17 10:36:15;;;;;;;17.38;10.13;;;;;;;;;;5062713;28;20060;-74
2023/08/17 10:38:46;;;;;;;25.25;10.75;;;;;;;;;;5062324;28;20392;-75
2023/08/17 10:41:16;;;;;;;24.27;11.02;;;;;;;;;;5061525;28;20052;-75
2023/08/17 10:44:00;;;;;;;15.88;9.77;;;;;;;;;;5062265;28;20426;-74
2023/08/17 10:46:37;;;;;;;17.77;9.80;;;;;;;;;;5063110;28;20053;-75
2023/08/17 10:49:25;;;;;;;16.02;9.52;;;;;;;;;;5061528;28;20051;-75
2023/08/17 10:52:08;;;;;;;17.08;9.32;;;;;;;;;;5062079;28;20049;-74
2023/08/17 10:54:43;;;;;;;13.48;8.00;;;;;;;;;;5062138;28;20048;-75
2023/08/17 10:57:37;;;;;;;17.33;9.65;;;;;;;;;;5061828;28;20059;-75
2023/08/17 11:00:15;;;;;;;12.48;8.45;;;;;;;;;;5061442;28;20056;-75
2023/08/17 11:02:58;;;;;;;17.05;8.65;;;;;;;;;;5060426;28;20554;-75
2023/08/17 11:05:42;;;;;;;13.68;8.73;;;;;;;;;;5062050;28;20044;-75
2023/08/17 11:08:32;;;;;;;18.23;8.77;;;;;;;;;;5062224;28;20123;-75
2023/08/17 11:11:13;;;;;;;13.25;8.77;;;;;;;;;;5062300;28;20570;-77
2023/08/17 11:13:46;;;;;;;12.60;7.75;;;;;;;;;;5061779;28;20586;-75
2023/08/17 11:16:22;;;;;;;13.68;7.88;;;;;;;;;;5061853;28;20052;-74
2023/08/17 11:18:55;;;;;;;14.05;7.95;;;;;;;;;;5061905;28;20056;-74
2023/08/17 11:21:27;;;;;;;12.07;7.05;;;;;;;;;;5062255;28;20064;-74
2023/08/17 11:23:57;;;;;;;11.68;6.88;;;;;;;;;;5061738;28;20040;-75
2023/08/17 11:26:28;;;;;;;12.85;6.95;;;;;;;;;;5061296;28;20052;-73
2023/08/17 11:29:05;;;;;;;10.90;7.03;;;;;;;;;;5060961;28;20500;-75
2023/08/17 11:31:35;;;;;;;10.40;7.00;;;;;;;;;;5061133;28;20064;-75
2023/08/17 11:34:05;;;;;;;9.70;6.53;;;;;;;;;;5061666;28;20056;-75
2023/08/17 11:36:37;;;;;;;12.57;6.50;;;;;;;;;;5060321;28;20499;-75
2023/08/17 11:39:08;;;;;;;13.05;6.72;;;;;;;;;;5060682;28;20050;-75
2023/08/17 11:41:40;;;;;;;10.25;6.60;;;;;;;;;;5061036;28;20060;-75
2023/08/17 11:44:12;;;;;;;9.93;6.65;;;;;;;;;;5060366;28;20048;-75
2023/08/17 11:46:43;;;;;;;11.15;7.32;;;;;;;;;;5060338;28;20044;-75
2023/08/17 11:49:14;;;;;;;10.82;6.55;;;;;;;;;;5060683;28;20059;-77
2023/08/17 11:51:45;;;;;;;8.57;5.80;;;;;;;;;;5061512;28;20431;-75
2023/08/17 11:54:16;;;;;;;11.32;6.00;;;;;;;;;;5059536;28;20052;-75
2023/08/17 11:56:45;;;;;;;12.45;5.72;;;;;;;;;;5061440;28;20049;-75
2023/08/17 11:59:18;;;;;;;11.90;6.07;;;;;;;;;;5061653;28;20047;-75
2023/08/17 12:01:50;;;;;;;11.00;6.43;;;;;;;;;;5066182;28;20049;-75
2023/08/17 12:04:25;;;;;;;8.75;5.85;;;;;;;;;;5063987;28;20048;-75
2023/08/17 12:06:56;;;;;;;12.65;6.13;;;;;;;;;;5062331;28;20083;-75
2023/08/17 12:09:26;;;;;;;7.78;5.60;;;;;;;;;;5065340;28;20627;-74
2023/08/17 12:12:01;;;;;;;8.38;5.45;;;;;;;;;;5065590;28;20044;-75
2023/08/17 12:14:32;;;;;;;8.60;6.45;;;;;;;;;;5063564;28;20059;-74
2023/08/17 12:17:03;;;;;;;7.80;5.95;;;;;;;;;;5065024;28;20049;-75
2023/08/17 12:19:33;;;;;;;8.45;5.88;;;;;;;;;;5063911;28;20100;-75
2023/08/17 12:22:04;;;;;;;10.25;5.95;;;;;;;;;;5065672;28;20056;-75
2023/08/17 12:24:35;;;;;;;10.27;6.95;;;;;;;;;;5065007;28;20491;-75
2023/08/17 12:27:06;;;;;;;20.65;8.35;;;;;;;;;;5065786;28;20055;-75
2023/08/17 12:29:51;;;;;;;14.27;7.30;;;;;;;;;;5065989;28;20153;-75
2023/08/17 12:32:21;;;;;;;17.88;9.02;;;;;;;;;;5065132;28;20052;-75
2023/08/17 12:34:53;;;;;;;17.63;10.90;;;;;;;;;;5065197;28;21034;-75
2023/08/17 12:37:24;;;;;;;13.68;7.88;;;;;;;;;;5064903;28;20045;-77
2023/08/17 12:39:55;;;;;;;11.00;7.22;;;;;;;;;;5064470;28;20064;-75
2023/08/17 12:42:30;;;;;;;10.68;7.88;;;;;;;;;;5064661;28;20032;-75
2023/08/17 12:45:03;;;;;;;17.25;7.22;;;;;;;;;;5064225;28;20053;-75
2023/08/17 12:47:34;;;;;;;21.10;6.65;;;;;;;;;;5064328;28;20044;-75
2023/08/17 12:50:04;;;;;;;12.35;5.65;;;;;;;;;;5065198;28;20059;-75
2023/08/17 12:52:35;;;;;;;13.18;5.38;;;;;;;;;;5063994;28;20434;-75
2023/08/17 12:55:06;;;;;;;11.48;5.72;;;;;;;;;;5064171;28;20076;-75
2023/08/17 12:57:37;;;;;;;9.80;5.30;;;;;;;;;;5064217;28;20051;-75
2023/08/17 13:00:08;;;;;;;8.88;5.07;;;;;;;;;;5064432;28;20053;-75
2023/08/17 13:02:40;;;;;;;18.77;7.47;;;;;;;;;;5064254;28;20043;-75
2023/08/17 13:05:12;;;;;;;10.80;5.68;;;;;;;;;;5063923;28;20411;-75
2023/08/17 13:07:43;;;;;;;10.02;4.47;;;;;;;;;;5064251;28;20045;-76
2023/08/17 13:10:14;;;;;;;7.07;4.63;;;;;;;;;;5063469;28;20047;-76
2023/08/17 13:12:47;;;;;;;10.15;5.18;;;;;;;;;;5061673;28;20431;-76
2023/08/17 13:15:17;;;;;;;7.88;4.82;;;;;;;;;;5063837;28;20527;-76
2023/08/17 13:17:48;;;;;;;6.35;4.60;;;;;;;;;;5063832;28;20044;-76
2023/08/17 13:20:18;;;;;;;8.63;4.97;;;;;;;;;;5064061;28;20055;-75
2023/08/17 13:22:49;;;;;;;11.25;4.85;;;;;;;;;;5063966;28;20059;-74
2023/08/17 13:25:20;;;;;;;9.93;4.57;;;;;;;;;;5064027;28;20071;-75
2023/08/17 13:27:50;;;;;;;9.43;5.03;;;;;;;;;;5062367;28;20063;-77
2023/08/17 13:30:21;;;;;;;12.10;4.18;;;;;;;;;;5062214;28;20059;-76
2023/08/17 13:32:53;;;;;;;8.07;4.28;;;;;;;;;;5063674;28;20079;-75
2023/08/17 13:35:24;;;;;;;13.00;4.78;;;;;;;;;;5063734;28;20495;-75
2023/08/17 13:37:57;;;;;;;7.95;4.13;;;;;;;;;;5063231;28;20051;-75
2023/08/17 13:40:27;;;;;;;10.65;4.40;;;;;;;;;;5063575;28;20059;-75
2023/08/17 13:42:59;;;;;;;10.07;4.38;;;;;;;;;;5063557;28;20052;-76
2023/08/17 13:45:30;;;;;;;13.13;4.80;;;;;;;;;;5064635;28;20048;-75
2023/08/17 13:47:59;;;;;;;7.13;4.25;;;;;;;;;;5064373;28;20052;-75
2023/08/17 13:50:31;;;;;;;10.68;4.40;;;;;;;;;;5064023;28;20032;-76
2023/08/17 13:53:02;;;;;;;10.00;4.63;;;;;;;;;;5062825;28;20119;-76
2023/08/17 13:55:33;;;;;;;16.42;4.72;;;;;;;;;;5063250;28;20044;-76
2023/08/17 13:58:04;;;;;;;12.07;5.10;;;;;;;;;;5063180;28;20418;-78
2023/08/17 14:00:34;;;;;;;9.95;4.20;;;;;;;;;;5063196;28;20055;-75
2023/08/17 14:03:06;;;;;;;6.90;3.45;;;;;;;;;;5063476;28;20059;-75
2023/08/17 14:05:37;;;;;;;10.98;3.85;;;;;;;;;;5062612;28;20446;-76
2023/08/17 14:08:10;;;;;;;10.10;3.90;;;;;;;;;;5062309;28;20164;-75
2023/08/17 14:10:41;;;;;;;21.77;4.05;;;;;;;;;;5062728;28;20063;-76
2023/08/17 14:13:12;;;;;;;11.70;3.83;;;;;;;;;;5061156;28;20396;-75
2023/08/17 14:15:44;;;;;;;6.97;2.97;;;;;;;;;;5063013;28;20052;-76
2023/08/17 14:18:16;;;;;;;7.75;3.63;;;;;;;;;;5063127;28;20047;-76
2023/08/17 14:20:46;;;;;;;6.53;3.53;;;;;;;;;;5061463;28;20051;-77
2023/08/17 14:23:16;;;;;;;9.05;3.55;;;;;;;;;;5063219;28;20049;-75
2023/08/17 14:25:47;;;;;;;10.10;3.60;;;;;;;;;;5062678;28;20103;-76
2023/08/17 14:28:17;;;;;;;10.48;3.45;;;;;;;;;;5063573;28;20044;-75
2023/08/17 14:30:47;;;;;;;10.43;3.45;;;;;;;;;;5063147;28;20056;-75
2023/08/17 14:33:21;;;;;;;8.43;3.20;;;;;;;;;;5062810;28;20048;-79
2023/08/17 14:35:52;;;;;;;6.72;3.10;;;;;;;;;;5062837;28;20123;-76
2023/08/17 14:38:22;;;;;;;7.45;2.67;;;;;;;;;;5061625;28;20049;-75
2023/08/17 14:40:58;;;;;;;8.57;2.88;;;;;;;;;;5062454;28;20396;-75
2023/08/17 14:43:29;;;;;;;6.47;2.80;;;;;;;;;;5062426;28;20055;-76
2023/08/17 14:46:00;;;;;;;4.60;2.35;;;;;;;;;;5060990;28;21173;-75
2023/08/17 14:48:31;;;;;;;8.15;2.85;;;;;;;;;;5062306;28;20072;-77
2023/08/17 14:51:01;;;;;;;11.45;3.40;;;;;;;;;;5061317;28;20410;-77
2023/08/17 14:53:31;;;;;;;5.20;2.60;;;;;;;;;;5062369;28;20044;-76
2023/08/17 14:56:13;;;;;;;5.28;2.50;;;;;;;;;;5060423;28;20526;-77
2023/08/17 14:58:48;;;;;;;5.85;2.85;;;;;;;;;;5062019;28;20482;-76